Portada
METAR-TAF:

METAR-TAF

Aeropuertos :

Aeropuerto Internacional de Túnez-Cartago

Túnez, Túnez

latitud: 36-50N, longitud: 010-14E, altitud: 3 m

Observación

El informe se hizo hace 1 hora y 4 minutos, a las 02:30 UTC
Viento 6 kt del este, variando entre este-noreste y sureste
Temperatura 19°C
Humedad 88%
Presión 1015 hPa
Visibilidad 10 km o más
Escasas nubes a una altura de 2600 ft

METAR: DTTA 250230Z 10006KT 070V140 9999 FEW026 19/17 Q1015 NOSIG

Hora: 04:34 (03:34 UTC)

Pronóstico

El informe se hizo hace 4 horas y 34 minutos, a las 23:00 UTC
Pronóstico válido del 25 a las 00 UTC al 25 a las 24 UTC
Viento 4 kt del este-noreste
Visibilidad 10 km o más
sin nubes por debajo de 1500 m y sin presencia de cumulonimbus.

TAF: DTTA 242300Z 2500/2524 07004KT CAVOK

Observaciones y pronósticos meteorológicos de más de 4000 aeropuertos (mensajes METAR y TAF).

Los puntos amarillos y rojos representan las estaciones disponibles.

Ponga el ratón en el punto deseado para ver el nombre de la estación.

Haga clic para ver las observaciones y los pronósticos meteorológicos.

Para cambiar el mapa : haga clic en los botones verdes con una cruz de color negro para hacer un zoom, en el botón verde con un guión para alejar o en las flechas verdes para mapas adyacentes.


METAR-TAF: